Time;durP1;ratioP1;P1;durP2;ratioP2;P2;SDS_P1;SDS_P2;PMS_P1;PMS_P2;Temp;Humidity;BMP_temperature;BMP_pressure;BME280_temperature;BME280_humidity;BME280_pressure;Samples;Min_cycle;Max_cycle;Signal;HPM_P1;HPM_P2
2021/05/15 00:00:28;;;;;;;25.20;15.38;;;10.60;99.90;;;;;;5073024;28;20028;-76
2021/05/15 00:02:55;;;;;;;25.80;15.60;;;10.50;99.90;;;;;;5072974;28;20032;-76
2021/05/15 00:05:20;;;;;;;24.55;16.02;;;10.50;99.90;;;;;;5071685;28;20516;-76
2021/05/15 00:07:46;;;;;;;24.83;15.93;;;10.50;99.90;;;;;;5072974;28;20141;-76
2021/05/15 00:10:12;;;;;;;30.63;16.90;;;10.50;99.90;;;;;;5072992;28;20050;-76
2021/05/15 00:12:38;;;;;;;34.53;17.50;;;10.50;99.90;;;;;;5072857;28;20029;-76
2021/05/15 00:15:06;;;;;;;31.52;18.50;;;10.50;99.90;;;;;;5071601;28;20494;-76
2021/05/15 00:17:33;;;;;;;29.35;18.95;;;10.60;99.90;;;;;;5072806;28;20028;-76
2021/05/15 00:19:58;;;;;;;28.67;17.80;;;10.50;99.90;;;;;;5072908;28;20021;-76
2021/05/15 00:22:24;;;;;;;30.85;18.60;;;10.50;99.90;;;;;;5071134;28;20035;-76
2021/05/15 00:24:50;;;;;;;32.17;18.95;;;10.50;99.90;;;;;;5055470;28;20017;-76
2021/05/15 00:27:15;;;;;;;32.60;18.50;;;10.50;99.90;;;;;;5052688;28;20071;-76
2021/05/15 00:29:41;;;;;;;34.55;19.48;;;10.50;99.90;;;;;;5052739;28;20039;-76
2021/05/15 00:32:07;;;;;;;35.30;20.00;;;10.40;99.90;;;;;;5052516;28;20047;-76
2021/05/15 00:34:32;;;;;;;30.23;18.63;;;10.50;99.90;;;;;;5051405;28;20190;-76
2021/05/15 00:36:58;;;;;;;33.75;18.85;;;10.40;99.90;;;;;;5051288;28;20556;-76
2021/05/15 00:39:24;;;;;;;35.70;20.20;;;10.50;99.90;;;;;;5072690;28;20025;-76
2021/05/15 00:41:50;;;;;;;34.95;20.25;;;10.40;99.90;;;;;;5072621;28;20025;-76
2021/05/15 00:47:04;;;;;;;33.45;19.95;;;10.40;99.90;;;;;;5072566;28;20025;-76
2021/05/15 00:49:30;;;;;;;40.30;22.00;;;10.40;99.90;;;;;;5072229;28;20054;-76
2021/05/15 00:51:56;;;;;;;38.28;22.75;;;10.40;99.90;;;;;;5075524;28;20077;-77
2021/05/15 00:54:22;;;;;;;42.83;23.05;;;10.40;99.90;;;;;;5062146;28;20382;-76
2021/05/15 00:56:48;;;;;;;36.15;21.58;;;10.40;99.90;;;;;;5056437;28;20036;-76
2021/05/15 00:59:14;;;;;;;35.83;21.10;;;10.40;99.90;;;;;;5055840;28;20024;-76
2021/05/15 01:01:40;;;;;;;40.95;22.02;;;10.40;99.90;;;;;;5056156;28;20029;-76
2021/05/15 01:04:06;;;;;;;37.28;23.38;;;10.30;99.90;;;;;;5056283;28;20036;-76
2021/05/15 01:06:31;;;;;;;40.17;22.33;;;10.40;99.90;;;;;;5056163;28;20087;-76
2021/05/15 01:08:57;;;;;;;38.78;22.38;;;10.40;99.90;;;;;;5056247;28;20029;-76
2021/05/15 01:11:23;;;;;;;42.15;24.17;;;10.40;99.90;;;;;;5054782;28;20024;-76
2021/05/15 01:13:58;;;;;;;39.28;22.52;;;10.40;99.90;;;;;;5055380;28;20032;-76
2021/05/15 01:16:24;;;;;;;40.70;22.10;;;10.30;99.90;;;;;;5056089;28;20029;-76
2021/05/15 01:18:50;;;;;;;43.35;23.38;;;10.30;99.90;;;;;;5056009;28;20052;-76
2021/05/15 01:21:16;;;;;;;36.67;22.67;;;10.30;99.90;;;;;;5057603;28;20078;-76
2021/05/15 01:23:42;;;;;;;40.33;22.10;;;10.30;99.90;;;;;;5075908;28;20024;-76
2021/05/15 01:26:28;;;;;;;42.47;23.88;;;10.40;99.90;;;;;;5075875;28;20016;-76
2021/05/15 01:28:58;;;;;;;43.50;24.55;;;10.40;99.90;;;;;;5075794;28;20099;-76
2021/05/15 01:31:25;;;;;;;43.13;23.88;;;10.40;99.90;;;;;;5074485;28;20021;-76
2021/05/15 01:33:51;;;;;;;45.05;24.10;;;10.40;99.90;;;;;;5075709;28;20066;-76
2021/05/15 01:36:21;;;;;;;45.00;24.95;;;10.50;99.90;;;;;;5075660;28;20058;-76
2021/05/15 01:38:48;;;;;;;50.63;26.63;;;10.50;99.90;;;;;;5075592;28;20398;-76
2021/05/15 01:41:16;;;;;;;52.75;24.77;;;10.40;99.90;;;;;;5075638;28;20028;-76
2021/05/15 01:43:42;;;;;;;52.60;25.33;;;10.40;99.90;;;;;;5075546;28;20048;-76
2021/05/15 01:46:09;;;;;;;52.78;26.92;;;10.40;99.90;;;;;;5074204;28;20023;-75
2021/05/15 01:48:35;;;;;;;54.75;26.60;;;10.40;99.90;;;;;;5075399;28;20154;-76
2021/05/15 01:51:02;;;;;;;53.17;26.98;;;10.40;99.90;;;;;;5074978;28;20021;-76
2021/05/15 01:53:30;;;;;;;53.75;27.33;;;10.40;99.90;;;;;;5056484;28;20375;-76
2021/05/15 01:55:57;;;;;;;54.50;26.90;;;10.40;99.90;;;;;;5055330;28;20025;-76
2021/05/15 01:58:24;;;;;;;67.47;29.55;;;10.40;99.90;;;;;;5055186;28;20032;-76
2021/05/15 02:00:49;;;;;;;59.85;29.05;;;10.40;99.90;;;;;;5053893;28;20028;-76
2021/05/15 02:03:15;;;;;;;57.85;29.15;;;10.40;99.90;;;;;;5054352;28;20029;-76
2021/05/15 02:05:41;;;;;;;57.63;27.77;;;10.40;99.90;;;;;;5055445;28;20474;-76
2021/05/15 02:08:09;;;;;;;60.90;26.27;;;10.40;99.90;;;;;;5055101;28;20079;-76
2021/05/15 02:10:35;;;;;;;63.28;28.38;;;10.40;99.90;;;;;;5053712;28;20029;-76
2021/05/15 02:13:00;;;;;;;59.58;26.38;;;10.30;99.90;;;;;;5060840;28;20545;-76
2021/05/15 02:15:26;;;;;;;87.15;29.48;;;10.30;99.90;;;;;;5073544;28;20021;-76
2021/05/15 02:17:52;;;;;;;76.40;26.77;;;10.30;99.90;;;;;;5073608;28;20398;-76
2021/05/15 02:20:18;;;;;;;58.28;26.17;;;10.30;99.90;;;;;;5073118;28;20024;-76
2021/05/15 02:22:43;;;;;;;56.88;27.73;;;10.20;99.90;;;;;;5073510;28;20108;-76
2021/05/15 02:25:10;;;;;;;80.15;24.77;;;10.30;99.90;;;;;;5074849;28;20032;-76
2021/05/15 02:27:36;;;;;;;81.00;26.58;;;10.30;99.90;;;;;;5074725;28;20028;-76
2021/05/15 02:30:03;;;;;;;134.25;29.27;;;10.20;99.90;;;;;;5074698;28;20032;-76
2021/05/15 02:32:29;;;;;;;81.82;25.15;;;10.20;99.90;;;;;;5074460;28;20060;-76
2021/05/15 02:34:54;;;;;;;113.38;27.00;;;10.10;99.90;;;;;;5073311;28;20466;-76
2021/05/15 02:37:20;;;;;;;58.03;25.92;;;10.10;99.90;;;;;;5073284;28;20024;-76
2021/05/15 02:39:45;;;;;;;82.88;27.35;;;10.10;99.90;;;;;;5074519;28;20024;-76
2021/05/15 02:42:12;;;;;;;75.32;28.27;;;10.10;99.90;;;;;;5073039;28;20051;-76
2021/05/15 02:44:38;;;;;;;61.53;24.15;;;10.10;99.90;;;;;;5055165;28;20091;-76
2021/05/15 02:47:04;;;;;;;73.93;26.00;;;10.10;99.90;;;;;;5053102;28;20102;-76
2021/05/15 02:49:29;;;;;;;66.60;24.52;;;10.10;99.90;;;;;;5055260;28;20868;-76
2021/05/15 02:51:55;;;;;;;71.90;27.75;;;10.00;99.90;;;;;;5074151;28;20041;-76
2021/05/15 02:54:21;;;;;;;75.68;28.55;;;10.10;99.90;;;;;;5072968;28;20027;-76
2021/05/15 02:56:46;;;;;;;84.00;28.85;;;10.10;99.90;;;;;;5074188;28;20104;-76
2021/05/15 02:59:12;;;;;;;63.30;27.50;;;10.10;99.90;;;;;;5074138;28;20469;-76
2021/05/15 03:01:37;;;;;;;66.38;27.13;;;10.10;99.90;;;;;;5074092;28;20013;-76
2021/05/15 03:04:03;;;;;;;65.50;26.85;;;10.10;99.90;;;;;;5073808;28;20032;-76
2021/05/15 03:06:28;;;;;;;69.38;27.10;;;10.10;99.90;;;;;;5073840;28;20032;-76
2021/05/15 03:08:55;;;;;;;62.58;28.42;;;10.00;99.90;;;;;;5073970;28;20021;-76
2021/05/15 03:11:20;;;;;;;62.80;28.63;;;10.00;99.90;;;;;;5072483;28;20094;-76
2021/05/15 03:13:46;;;;;;;61.15;26.15;;;10.00;99.90;;;;;;5059103;28;20474;-76
2021/05/15 03:16:12;;;;;;;57.13;29.35;;;10.00;99.90;;;;;;5053842;28;20017;-76
2021/05/15 03:18:37;;;;;;;54.88;24.10;;;10.00;99.90;;;;;;5053700;28;20025;-76
2021/05/15 03:21:03;;;;;;;58.63;25.88;;;10.00;99.90;;;;;;5053759;28;20025;-76
2021/05/15 03:23:29;;;;;;;54.17;25.85;;;9.90;99.90;;;;;;5053593;28;20505;-76
2021/05/15 03:25:54;;;;;;;56.35;25.67;;;10.00;99.90;;;;;;5053647;28;20033;-76
2021/05/15 03:28:20;;;;;;;54.22;25.88;;;10.00;99.90;;;;;;5053513;28;20033;-76
2021/05/15 03:30:45;;;;;;;49.72;25.42;;;10.00;99.90;;;;;;5053598;28;20021;-76
2021/05/15 03:33:11;;;;;;;52.03;27.55;;;10.00;99.90;;;;;;5053514;28;20064;-76
2021/05/15 03:35:37;;;;;;;51.97;23.88;;;10.00;99.90;;;;;;5053478;28;20021;-76
2021/05/15 03:38:03;;;;;;;46.33;23.30;;;10.10;99.90;;;;;;5053345;28;20031;-75
2021/05/15 03:40:28;;;;;;;51.10;24.80;;;10.10;99.90;;;;;;5056420;28;20035;-76
2021/05/15 03:42:56;;;;;;;45.22;23.77;;;10.20;99.90;;;;;;5071502;28;20035;-76
2021/05/15 03:45:21;;;;;;;45.85;23.60;;;10.20;99.90;;;;;;5071904;28;20016;-76
2021/05/15 03:47:47;;;;;;;49.00;24.88;;;10.30;99.90;;;;;;5071478;28;20401;-76
2021/05/15 03:50:13;;;;;;;48.80;23.98;;;10.30;99.90;;;;;;5073190;28;20431;-76
2021/05/15 03:52:38;;;;;;;43.17;23.02;;;10.30;99.90;;;;;;5072933;28;20040;-77
2021/05/15 03:55:05;;;;;;;41.35;23.13;;;10.40;99.90;;;;;;5063860;28;20028;-77
2021/05/15 03:57:31;;;;;;;42.45;21.95;;;10.40;99.90;;;;;;5052820;28;20024;-77
2021/05/15 03:59:57;;;;;;;43.97;23.17;;;10.50;99.90;;;;;;5068274;28;20530;-76
2021/05/15 04:02:23;;;;;;;36.42;19.48;;;10.60;99.90;;;;;;5072868;28;20029;-76
2021/05/15 04:04:50;;;;;;;37.30;20.48;;;10.70;99.90;;;;;;5072862;28;20032;-77
2021/05/15 04:07:16;;;;;;;37.65;20.55;;;10.70;99.90;;;;;;5071565;28;20027;-77
2021/05/15 04:09:42;;;;;;;39.00;21.38;;;10.80;99.90;;;;;;5071579;28;20086;-76
2021/05/15 04:12:08;;;;;;;38.65;21.45;;;10.90;99.90;;;;;;5060300;28;20045;-76
2021/05/15 04:14:45;;;;;;;34.58;20.05;;;10.90;99.90;;;;;;5051532;28;20025;-77
2021/05/15 04:19:36;;;;;;;40.33;22.15;;;11.00;99.90;;;;;;5061463;28;20085;-76
2021/05/15 04:22:03;;;;;;;35.95;19.70;;;11.00;99.90;;;;;;5072308;28;20025;-76
2021/05/15 04:24:29;;;;;;;41.45;20.67;;;11.00;99.90;;;;;;5071922;28;20115;-76
2021/05/15 04:27:01;;;;;;;38.50;21.48;;;11.10;99.90;;;;;;5070984;28;20497;-76
2021/05/15 04:29:27;;;;;;;36.90;20.25;;;11.20;99.90;;;;;;5072805;28;20021;-76
2021/05/15 04:31:56;;;;;;;38.58;20.95;;;11.30;99.90;;;;;;5071418;28;20608;-76
2021/05/15 04:34:22;;;;;;;31.15;18.23;;;11.40;99.90;;;;;;5080195;28;20105;-77
2021/05/15 04:36:47;;;;;;;33.40;19.83;;;11.50;99.90;;;;;;5092931;28;20028;-76
2021/05/15 04:39:13;;;;;;;33.40;18.73;;;11.50;99.90;;;;;;5091543;28;20047;-76
2021/05/15 04:41:39;;;;;;;29.85;17.05;;;11.60;99.90;;;;;;5079204;28;20074;-76
2021/05/15 04:44:04;;;;;;;33.83;19.52;;;11.50;99.90;;;;;;5057055;28;20367;-77
2021/05/15 04:46:30;;;;;;;28.48;17.77;;;11.50;99.90;;;;;;5051301;28;20039;-76
2021/05/15 04:48:56;;;;;;;29.83;18.08;;;11.60;99.90;;;;;;5051231;28;20095;-76
2021/05/15 04:51:22;;;;;;;28.27;17.40;;;11.60;99.90;;;;;;5051120;28;20048;-76
2021/05/15 04:53:47;;;;;;;23.65;16.15;;;11.60;99.90;;;;;;5052446;28;20033;-76
2021/05/15 04:56:15;;;;;;;29.10;18.15;;;11.60;99.90;;;;;;5051223;28;20036;-76
2021/05/15 04:58:41;;;;;;;30.02;17.33;;;11.50;99.90;;;;;;5051046;28;20556;-77
2021/05/15 05:01:07;;;;;;;26.70;17.40;;;11.40;99.90;;;;;;5056289;28;20485;-77
2021/05/15 05:03:32;;;;;;;28.35;17.25;;;11.50;99.90;;;;;;5070622;28;20046;-77
2021/05/15 05:05:58;;;;;;;29.50;19.90;;;11.40;99.90;;;;;;5072790;28;20029;-77
2021/05/15 05:08:26;;;;;;;30.92;17.95;;;11.50;99.90;;;;;;5070900;28;20075;-77
2021/05/15 05:10:53;;;;;;;29.33;16.83;;;11.40;99.90;;;;;;5071593;28;20036;-76
2021/05/15 05:13:19;;;;;;;31.15;18.88;;;11.40;99.90;;;;;;5072254;28;20089;-76
2021/05/15 05:15:45;;;;;;;29.88;18.90;;;11.40;99.90;;;;;;5071078;28;20027;-76
2021/05/15 05:18:11;;;;;;;31.50;18.48;;;11.50;99.90;;;;;;5072237;28;20025;-76
2021/05/15 05:20:37;;;;;;;27.50;17.33;;;11.60;99.90;;;;;;5060143;28;20502;-77
2021/05/15 05:23:03;;;;;;;32.42;19.25;;;11.70;99.90;;;;;;5061354;28;20025;-77
2021/05/15 05:25:29;;;;;;;27.02;16.95;;;11.70;99.90;;;;;;5060266;28;20028;-76
2021/05/15 05:27:55;;;;;;;29.15;18.23;;;11.70;99.90;;;;;;5060318;28;20102;-77
2021/05/15 05:30:22;;;;;;;29.15;17.58;;;11.70;99.90;;;;;;5058937;28;20063;-77
2021/05/15 05:32:51;;;;;;;26.38;16.20;;;11.90;99.90;;;;;;5060481;28;20036;-77
2021/05/15 05:35:18;;;;;;;30.08;17.38;;;11.90;99.90;;;;;;5061476;28;20012;-76
2021/05/15 05:37:44;;;;;;;25.45;16.95;;;12.10;99.90;;;;;;5062702;28;20025;-77
2021/05/15 05:40:11;;;;;;;29.45;18.15;;;12.20;99.90;;;;;;5064357;28;20017;-76
2021/05/15 05:42:38;;;;;;;27.50;16.98;;;12.20;99.90;;;;;;5060833;28;20025;-77
2021/05/15 05:45:06;;;;;;;25.83;17.75;;;12.30;99.90;;;;;;5055486;28;20029;-77
2021/05/15 05:47:32;;;;;;;30.63;19.70;;;12.40;99.90;;;;;;5054214;28;20103;-76
2021/05/15 05:49:58;;;;;;;30.17;20.00;;;12.50;99.90;;;;;;5065117;28;20071;-76
2021/05/15 05:52:24;;;;;;;32.85;21.15;;;12.60;99.90;;;;;;5065120;28;20368;-77
2021/05/15 05:54:49;;;;;;;37.30;22.80;;;12.70;99.90;;;;;;5063855;28;20371;-77
2021/05/15 05:57:15;;;;;;;32.20;20.25;;;12.80;99.90;;;;;;5065911;28;20134;-76
2021/05/15 05:59:40;;;;;;;28.83;20.60;;;13.00;99.90;;;;;;5063490;28;20021;-77
2021/05/15 06:02:06;;;;;;;32.85;20.13;;;13.00;99.90;;;;;;5063907;28;20032;-76
2021/05/15 06:04:33;;;;;;;29.90;19.42;;;13.10;99.90;;;;;;5064330;28;20081;-77
2021/05/15 06:06:59;;;;;;;25.05;18.70;;;13.20;99.90;;;;;;5060395;28;20032;-77
2021/05/15 06:09:24;;;;;;;28.65;18.35;;;13.40;99.90;;;;;;5060891;28;20025;-77
2021/05/15 06:11:50;;;;;;;32.55;20.13;;;13.50;96.40;;;;;;5060668;28;20036;-77
2021/05/15 06:14:16;;;;;;;26.90;17.83;;;13.60;94.90;;;;;;5069869;28;20055;-78
2021/05/15 06:16:42;;;;;;;27.13;18.70;;;13.70;97.60;;;;;;5072904;28;20504;-77
2021/05/15 06:19:07;;;;;;;24.90;18.88;;;13.90;93.60;;;;;;5073032;28;20108;-77
2021/05/15 06:21:33;;;;;;;26.50;16.77;;;14.10;92.60;;;;;;5072837;28;20060;-77
2021/05/15 06:23:59;;;;;;;26.63;15.95;;;14.20;90.70;;;;;;5069653;28;20037;-77
2021/05/15 06:26:25;;;;;;;26.20;15.95;;;14.40;90.60;;;;;;5071108;28;20436;-77
2021/05/15 06:28:50;;;;;;;23.33;16.58;;;14.60;88.00;;;;;;5070304;28;20237;-78
2021/05/15 06:31:16;;;;;;;26.60;15.60;;;14.70;87.30;;;;;;5071908;28;20035;-77
2021/05/15 06:33:42;;;;;;;25.13;16.77;;;14.70;86.10;;;;;;5072566;28;20020;-77
2021/05/15 06:36:08;;;;;;;27.33;16.15;;;14.70;85.20;;;;;;5072310;28;20020;-77
2021/05/15 06:38:33;;;;;;;24.08;16.45;;;14.70;85.40;;;;;;5071486;28;20028;-76
2021/05/15 06:40:59;;;;;;;28.35;16.70;;;14.90;84.60;;;;;;5073320;28;20025;-76
2021/05/15 06:43:25;;;;;;;23.00;16.17;;;14.90;83.90;;;;;;5069753;28;20466;-77
2021/05/15 06:45:50;;;;;;;18.88;12.98;;;15.10;81.80;;;;;;5059196;28;20471;-77
2021/05/15 06:48:16;;;;;;;25.88;14.60;;;15.40;83.00;;;;;;5057132;28;20029;-77
2021/05/15 06:50:42;;;;;;;18.17;13.35;;;15.20;76.50;;;;;;5061145;28;20474;-77
2021/05/15 06:53:08;;;;;;;23.02;14.23;;;15.40;81.10;;;;;;5058226;28;20423;-77
2021/05/15 06:55:33;;;;;;;23.33;14.23;;;15.50;77.10;;;;;;5059937;28;20025;-77
2021/05/15 06:58:04;;;;;;;17.67;12.68;;;15.70;76.30;;;;;;5060728;28;20458;-77
2021/05/15 07:00:30;;;;;;;21.80;12.93;;;15.90;77.40;;;;;;5062789;28;20420;-79
2021/05/15 07:02:56;;;;;;;17.45;12.20;;;16.00;74.70;;;;;;5055827;28;20035;-77
2021/05/15 07:05:22;;;;;;;17.13;11.98;;;16.30;74.30;;;;;;5056554;28;20378;-77
2021/05/15 07:07:47;;;;;;;18.95;12.60;;;16.40;71.10;;;;;;5061789;28;20035;-77
2021/05/15 07:10:13;;;;;;;19.45;13.40;;;16.20;70.40;;;;;;5058668;28;20094;-78
2021/05/15 07:12:39;;;;;;;18.98;11.75;;;16.10;71.20;;;;;;5055856;28;20032;-78
2021/05/15 07:15:08;;;;;;;16.77;11.57;;;16.00;69.60;;;;;;5073857;28;20023;-77
2021/05/15 07:17:35;;;;;;;18.98;12.43;;;15.80;71.20;;;;;;5072410;28;20128;-77
2021/05/15 07:20:03;;;;;;;19.27;13.38;;;16.10;73.00;;;;;;5064960;28;20028;-78
2021/05/15 07:22:29;;;;;;;15.07;11.15;;;16.10;70.00;;;;;;5063491;28;20029;-78
2021/05/15 07:24:56;;;;;;;14.77;10.57;;;16.10;68.00;;;;;;5053875;28;20387;-77
2021/05/15 07:27:22;;;;;;;18.60;10.60;;;16.40;69.20;;;;;;5053347;28;20029;-78
2021/05/15 07:29:52;;;;;;;21.85;12.00;;;16.70;67.50;;;;;;5053645;28;20031;-77
2021/05/15 07:32:18;;;;;;;17.10;11.93;;;16.70;66.90;;;;;;5055823;28;20368;-77
2021/05/15 07:34:43;;;;;;;15.38;10.45;;;16.90;67.20;;;;;;5061183;28;20028;-77
2021/05/15 07:37:09;;;;;;;16.02;10.00;;;17.30;66.40;;;;;;5055004;28;20500;-77
2021/05/15 07:39:37;;;;;;;15.45;10.57;;;17.50;65.70;;;;;;5058733;28;20538;-81
2021/05/15 07:42:04;;;;;;;14.82;10.00;;;17.70;64.30;;;;;;5057517;28;20029;-77
2021/05/15 07:44:30;;;;;;;15.82;10.32;;;17.60;64.50;;;;;;5064357;28;20029;-79
2021/05/15 07:46:55;;;;;;;15.45;10.25;;;17.90;63.50;;;;;;5062682;28;20038;-78
2021/05/15 07:49:24;;;;;;;15.52;10.38;;;17.80;60.80;;;;;;5068422;28;20017;-77
2021/05/15 07:51:50;;;;;;;14.13;9.65;;;17.80;61.70;;;;;;5069910;28;20036;-78
2021/05/15 07:54:16;;;;;;;14.50;9.68;;;17.40;60.20;;;;;;5068769;28;20111;-78
2021/05/15 07:56:42;;;;;;;17.38;9.98;;;17.30;61.30;;;;;;5063193;28;20028;-78
2021/05/15 07:59:08;;;;;;;16.13;9.88;;;17.30;63.70;;;;;;5064242;28;20079;-78
2021/05/15 08:01:33;;;;;;;12.60;9.80;;;17.50;63.50;;;;;;5064945;28;20934;-80
2021/05/15 08:03:59;;;;;;;11.65;8.35;;;17.40;62.40;;;;;;5065674;28;20024;-87
2021/05/15 08:06:25;;;;;;;10.43;8.57;;;17.20;61.30;;;;;;5064424;28;20123;-87
2021/05/15 08:08:51;;;;;;;12.10;7.88;;;17.50;62.30;;;;;;5063164;28;20474;-82
2021/05/15 08:11:20;;;;;;;15.60;8.05;;;17.70;60.00;;;;;;5066890;28;20097;-84
2021/05/15 08:13:46;;;;;;;9.95;8.88;;;17.60;60.00;;;;;;5069363;28;20051;-83
2021/05/15 08:16:13;;;;;;;16.67;9.23;;;17.50;59.30;;;;;;5069911;28;20020;-82
2021/05/15 08:18:40;;;;;;;13.90;7.75;;;17.50;60.80;;;;;;5069915;28;20027;-83
2021/05/15 08:21:06;;;;;;;11.55;7.55;;;17.80;60.20;;;;;;5070704;28;20043;-85
2021/05/15 08:23:35;;;;;;;14.65;7.45;;;17.90;59.00;;;;;;5070105;28;20027;-86
2021/05/15 08:26:05;;;;;;;13.40;7.60;;;17.70;58.30;;;;;;5072101;28;20016;-86
2021/05/15 08:28:31;;;;;;;13.48;7.35;;;17.90;56.70;;;;;;5071337;28;20024;-87
2021/05/15 08:30:57;;;;;;;8.93;6.95;;;18.20;56.30;;;;;;5056703;28;20071;-86
2021/05/15 08:33:23;;;;;;;11.93;7.28;;;18.50;57.80;;;;;;5062967;28;20131;-86
2021/05/15 08:35:50;;;;;;;10.73;7.03;;;18.10;56.30;;;;;;5064920;28;20032;-83
2021/05/15 08:38:16;;;;;;;14.23;7.60;;;17.70;56.50;;;;;;5062328;28;20517;-83
2021/05/15 08:40:41;;;;;;;16.00;8.60;;;17.50;58.60;;;;;;5060017;28;20021;-85
2021/05/15 08:43:08;;;;;;;18.90;8.02;;;17.40;59.00;;;;;;5051336;28;20123;-85
2021/05/15 08:45:34;;;;;;;19.13;9.15;;;17.20;59.40;;;;;;5069485;28;20037;-84
2021/05/15 08:48:02;;;;;;;13.13;8.73;;;17.20;59.20;;;;;;5072510;28;20028;-86
2021/05/15 08:50:30;;;;;;;9.10;7.28;;;17.40;60.70;;;;;;5071828;28;20108;-84
2021/05/15 08:53:00;;;;;;;10.02;7.47;;;17.70;58.90;;;;;;5070567;28;20398;-84
2021/05/15 08:55:28;;;;;;;11.07;6.28;;;18.10;57.50;;;;;;5061282;28;20024;-86
2021/05/15 08:57:56;;;;;;;11.82;6.45;;;18.00;55.60;;;;;;5052326;28;20575;-87
2021/05/15 09:00:28;;;;;;;9.98;7.55;;;17.90;56.50;;;;;;5051241;28;20017;-86
2021/05/15 09:02:58;;;;;;;9.18;6.97;;;17.80;57.20;;;;;;5050497;28;20031;-86
2021/05/15 09:05:25;;;;;;;9.70;7.00;;;17.70;58.30;;;;;;5051265;28;20375;-86
2021/05/15 09:07:58;;;;;;;11.02;7.28;;;17.60;57.70;;;;;;5050982;28;20418;-84
2021/05/15 09:10:30;;;;;;;12.50;8.35;;;17.60;58.10;;;;;;5050660;28;20063;-85
2021/05/15 09:13:10;;;;;;;16.52;7.32;;;17.70;57.30;;;;;;5053608;28;20127;-86
2021/05/15 09:16:00;;;;;;;10.27;8.13;;;17.70;57.00;;;;;;5054636;28;20032;-86
2021/05/15 09:18:27;;;;;;;20.58;10.32;;;17.70;57.00;;;;;;5054752;28;20029;-86
2021/05/15 09:20:57;;;;;;;8.80;6.95;;;17.80;56.90;;;;;;5054733;28;20053;-87
2021/05/15 09:23:24;;;;;;;22.00;13.05;;;17.80;57.50;;;;;;5054652;28;20583;-88
2021/05/15 09:25:59;;;;;;;42.53;21.67;;;18.10;57.50;;;;;;5055877;28;20021;-83
2021/05/15 09:28:44;;;;;;;15.68;8.38;;;18.60;56.10;;;;;;5064061;28;20039;-85
2021/05/15 09:31:19;;;;;;;50.00;19.08;;;18.90;55.00;;;;;;5055830;28;20017;-85
2021/05/15 09:33:52;;;;;;;8.88;5.85;;;19.00;54.60;;;;;;5054307;28;20116;-85
2021/05/15 09:36:20;;;;;;;8.55;5.82;;;19.00;52.60;;;;;;5055671;28;20025;-84
2021/05/15 09:38:46;;;;;;;7.35;5.78;;;18.80;52.70;;;;;;5054364;28;20021;-87
2021/05/15 09:41:12;;;;;;;8.77;6.07;;;18.50;52.70;;;;;;5054183;28;20033;-86
2021/05/15 09:43:38;;;;;;;9.73;6.60;;;18.30;53.10;;;;;;5062112;28;20485;-86
2021/05/15 09:46:05;;;;;;;12.02;6.32;;;18.20;54.30;;;;;;5064915;28;20017;-83
2021/05/15 09:48:36;;;;;;;10.38;6.13;;;18.20;54.80;;;;;;5065757;28;20471;-86
2021/05/15 09:51:13;;;;;;;7.20;5.70;;;18.20;53.80;;;;;;5065480;28;20021;-86
2021/05/15 09:53:39;;;;;;;6.45;4.68;;;18.10;55.10;;;;;;5063070;28;20028;-86
2021/05/15 09:56:05;;;;;;;12.65;6.35;;;18.10;55.30;;;;;;5061213;28;20473;-85
2021/05/15 09:58:31;;;;;;;6.60;5.18;;;18.00;52.40;;;;;;5054556;28;20478;-84
2021/05/15 10:00:57;;;;;;;7.40;5.53;;;17.90;52.40;;;;;;5053954;28;20025;-82
2021/05/15 10:03:23;;;;;;;6.20;4.90;;;17.90;52.40;;;;;;5054792;28;20092;-86
2021/05/15 10:06:12;;;;;;;6.05;5.47;;;18.00;51.70;;;;;;5055511;28;20036;-85
2021/05/15 10:08:43;;;;;;;11.13;5.30;;;18.50;51.80;;;;;;5053635;28;20025;-84
2021/05/15 10:11:09;;;;;;;8.70;5.85;;;18.70;51.50;;;;;;5053845;28;20025;-84
2021/05/15 10:13:37;;;;;;;6.60;5.85;;;18.70;50.50;;;;;;5053542;28;20029;-84
2021/05/15 10:16:04;;;;;;;9.50;6.32;;;18.80;49.60;;;;;;5055021;28;20479;-84
2021/05/15 10:18:31;;;;;;;7.80;4.85;;;18.60;51.10;;;;;;5054820;28;20083;-84
2021/05/15 10:20:57;;;;;;;11.27;5.32;;;18.30;51.10;;;;;;5053262;28;20029;-85
2021/05/15 10:23:27;;;;;;;8.05;5.72;;;18.40;51.70;;;;;;5052193;28;20218;-87
2021/05/15 10:26:04;;;;;;;7.40;5.82;;;18.20;51.20;;;;;;5061044;28;20422;-87
2021/05/15 10:28:38;;;;;;;9.10;5.68;;;18.20;51.10;;;;;;5054595;28;20035;-86
2021/05/15 10:31:17;;;;;;;7.25;5.13;;;18.30;51.90;;;;;;5057287;28;20036;-87
2021/05/15 10:33:48;;;;;;;7.32;4.93;;;18.30;52.30;;;;;;5072542;28;20043;-87
2021/05/15 10:36:24;;;;;;;6.40;4.63;;;18.40;52.20;;;;;;5074672;28;20104;-87
2021/05/15 10:38:52;;;;;;;8.98;5.38;;;18.50;52.50;;;;;;5074384;28;20059;-87
2021/05/15 10:41:17;;;;;;;6.60;4.90;;;18.50;51.10;;;;;;5074579;28;20017;-84
2021/05/15 10:43:44;;;;;;;12.30;5.60;;;18.70;51.60;;;;;;5072442;28;20082;-86
2021/05/15 10:46:21;;;;;;;6.30;4.65;;;19.00;51.10;;;;;;5072623;28;20017;-86
2021/05/15 10:49:02;;;;;;;4.85;4.43;;;19.20;50.60;;;;;;5073293;28;20446;-86
2021/05/15 10:51:50;;;;;;;4.85;4.07;;;19.40;48.40;;;;;;5072812;28;20115;-86
2021/05/15 10:54:28;;;;;;;14.63;8.52;;;19.40;48.40;;;;;;5074337;28;20478;-87
2021/05/15 10:57:06;;;;;;;8.07;4.88;;;19.50;48.90;;;;;;5074095;28;20020;-86
2021/05/15 10:59:33;;;;;;;6.43;4.80;;;19.40;47.50;;;;;;5072565;28;20486;-87
2021/05/15 11:02:00;;;;;;;6.22;4.88;;;19.60;48.50;;;;;;5058457;28;20068;-87
2021/05/15 11:04:31;;;;;;;4.32;3.90;;;20.00;48.80;;;;;;5060852;28;20393;-87
2021/05/15 11:07:09;;;;;;;8.23;4.75;;;20.20;48.00;;;;;;5058359;28;20016;-87
2021/05/15 11:09:56;;;;;;;4.10;3.70;;;20.00;45.50;;;;;;5061217;28;20071;-88
2021/05/15 11:12:23;;;;;;;5.78;3.95;;;20.20;46.30;;;;;;5065538;28;20069;-87
2021/05/15 11:14:50;;;;;;;4.55;3.10;;;20.10;45.50;;;;;;5053646;28;20017;-85
2021/05/15 11:17:28;;;;;;;3.83;3.50;;;20.30;46.30;;;;;;5058178;28;20440;-86
2021/05/15 11:19:57;;;;;;;4.20;3.50;;;20.20;45.80;;;;;;5062016;28;20051;-86
2021/05/15 11:22:52;;;;;;;4.25;2.80;;;20.40;46.30;;;;;;5060517;28;20067;-87
2021/05/15 11:25:26;;;;;;;3.75;2.75;;;20.40;44.30;;;;;;5062245;28;20020;-87
2021/05/15 11:27:57;;;;;;;3.65;3.28;;;20.30;43.10;;;;;;5069120;28;20074;-87
2021/05/15 11:30:26;;;;;;;4.40;3.33;;;20.10;43.10;;;;;;5059994;28;20033;-87
2021/05/15 11:33:03;;;;;;;3.70;3.03;;;20.10;43.10;;;;;;5051344;28;20032;-87
2021/05/15 11:35:42;;;;;;;4.22;3.67;;;20.30;42.80;;;;;;5050069;28;20035;-85
2021/05/15 11:38:09;;;;;;;6.55;3.65;;;20.50;43.30;;;;;;5049613;28;20462;-88
2021/05/15 11:40:38;;;;;;;8.30;5.18;;;20.40;43.80;;;;;;5049911;28;20029;-89
2021/05/15 11:43:04;;;;;;;4.88;4.18;;;20.20;44.30;;;;;;5050177;28;20591;-89
2021/05/15 11:45:32;;;;;;;5.10;4.00;;;20.50;44.00;;;;;;5050183;28;20096;-88
2021/05/15 11:48:21;;;;;;;7.00;3.65;;;20.50;43.70;;;;;;5050660;28;20025;-88
2021/05/15 11:50:58;;;;;;;6.90;3.58;;;20.70;44.10;;;;;;5051492;28;20021;-88
2021/05/15 11:53:25;;;;;;;10.43;4.68;;;20.70;42.90;;;;;;5050636;28;20037;-88
2021/05/15 11:55:51;;;;;;;5.88;4.35;;;20.80;43.10;;;;;;5051322;28;20086;-88
2021/05/15 11:58:18;;;;;;;7.50;3.40;;;21.10;42.80;;;;;;5052763;28;20017;-89
2021/05/15 12:00:45;;;;;;;4.88;4.22;;;21.40;43.80;;;;;;5051682;28;20025;-88
2021/05/15 12:03:11;;;;;;;6.43;3.55;;;21.70;43.80;;;;;;5052367;28;20025;-87
2021/05/15 12:05:36;;;;;;;6.47;3.85;;;22.00;41.80;;;;;;5051351;28;20109;-88
2021/05/15 12:08:12;;;;;;;3.88;3.42;;;22.20;42.60;;;;;;5052712;28;20059;-84
2021/05/15 12:10:40;;;;;;;5.57;3.65;;;22.10;40.00;;;;;;5052718;28;20023;-85
2021/05/15 12:13:06;;;;;;;7.28;3.75;;;22.20;40.10;;;;;;5051182;28;20037;-87
2021/05/15 12:15:32;;;;;;;4.75;3.10;;;22.30;40.40;;;;;;5052584;28;20032;-87
2021/05/15 12:18:00;;;;;;;6.18;3.83;;;22.10;39.90;;;;;;5052263;28;20025;-87
2021/05/15 12:20:32;;;;;;;4.43;3.20;;;22.10;40.60;;;;;;5057537;28;20025;-86
2021/05/15 12:23:15;;;;;;;5.20;3.50;;;22.30;41.40;;;;;;5071172;28;20466;-86
2021/05/15 12:25:55;;;;;;;5.85;3.38;;;22.10;39.40;;;;;;5060358;28;20071;-87
2021/05/15 12:28:26;;;;;;;4.53;3.33;;;22.00;39.60;;;;;;5061752;28;20107;-86
2021/05/15 12:30:53;;;;;;;5.75;3.90;;;22.00;40.00;;;;;;5058579;28;20024;-87
2021/05/15 12:33:21;;;;;;;3.80;3.15;;;21.70;40.30;;;;;;5055884;28;20039;-87
2021/05/15 12:36:03;;;;;;;6.50;4.28;;;21.70;40.10;;;;;;5059298;28;20039;-87
2021/05/15 12:38:32;;;;;;;5.45;3.60;;;21.50;40.00;;;;;;5060984;28;20105;-87
2021/05/15 12:41:09;;;;;;;5.60;3.28;;;21.40;40.80;;;;;;5063390;28;20096;-86